Time;durP1;ratioP1;P1;durP2;ratioP2;P2;SDS_P1;SDS_P2;PMS_P1;PMS_P2;Temp;Humidity;BMP_temperature;BMP_pressure;BME280_temperature;BME280_humidity;BME280_pressure;Samples;Min_cycle;Max_cycle;Signal;HPM_P1;HPM_P2
2021/06/17 00:01:42;;;;;;;5.75;2.28;;;;;;;13.18;68.63;100110.94;5019716;28;20029;-72
2021/06/17 00:04:08;;;;;;;5.00;2.17;;;;;;;13.15;68.78;100119.19;5033769;28;20917;-75
2021/06/17 00:06:34;;;;;;;3.95;1.90;;;;;;;13.13;68.87;100119.28;5034054;28;20041;-80
2021/06/17 00:09:00;;;;;;;7.82;2.42;;;;;;;13.13;69.13;100116.63;5033691;28;20075;-73
2021/06/17 00:11:26;;;;;;;4.78;2.30;;;;;;;13.14;69.06;100113.00;5034215;28;20375;-72
2021/06/17 00:13:52;;;;;;;5.70;2.53;;;;;;;13.10;69.15;100117.72;5033635;28;20418;-77
2021/06/17 00:16:18;;;;;;;8.75;2.60;;;;;;;13.03;69.30;100119.16;5032836;28;20045;-74
2021/06/17 00:18:44;;;;;;;5.63;2.42;;;;;;;13.00;69.46;100135.38;5033609;28;20041;-72
2021/06/17 00:21:10;;;;;;;5.60;2.55;;;;;;;12.97;69.55;100127.63;5033757;28;20055;-72
2021/06/17 00:23:36;;;;;;;5.28;3.00;;;;;;;12.94;69.15;100131.38;5033860;28;20405;-74
2021/06/17 00:26:03;;;;;;;8.32;3.00;;;;;;;12.91;69.22;100134.28;5033359;28;20037;-72
2021/06/17 00:28:30;;;;;;;4.83;2.80;;;;;;;12.89;69.16;100133.56;5033589;28;20080;-73
2021/06/17 00:30:56;;;;;;;7.57;3.10;;;;;;;12.88;69.25;100146.97;5033585;28;20509;-74
2021/06/17 00:33:22;;;;;;;6.05;3.05;;;;;;;12.85;69.30;100139.25;5033443;28;20037;-74
2021/06/17 00:35:48;;;;;;;4.80;2.55;;;;;;;12.79;69.30;100138.75;5034086;28;20060;-72
2021/06/17 00:38:14;;;;;;;5.30;2.42;;;;;;;12.67;69.34;100139.72;5034634;28;20041;-72
2021/06/17 00:40:41;;;;;;;5.63;2.28;;;;;;;12.57;70.06;100154.66;5034496;28;20041;-72
2021/06/17 00:43:07;;;;;;;6.60;2.70;;;;;;;12.53;70.23;100158.53;5034457;28;20386;-72
2021/06/17 00:45:39;;;;;;;5.03;2.47;;;;;;;12.53;69.73;100143.44;5034601;28;20029;-71
2021/06/17 00:48:06;;;;;;;8.48;3.72;;;;;;;12.57;69.83;100152.00;5032972;28;20387;-72
2021/06/17 00:50:44;;;;;;;7.65;3.10;;;;;;;12.61;70.32;100161.41;5034469;28;20041;-71
2021/06/17 00:53:12;;;;;;;4.80;2.38;;;;;;;12.62;70.16;100163.13;5033952;28;20041;-73
2021/06/17 00:55:43;;;;;;;6.18;2.50;;;;;;;12.65;70.39;100165.53;5034177;28;20040;-74
2021/06/17 00:58:09;;;;;;;6.25;2.60;;;;;;;12.67;70.37;100160.94;5033831;28;20078;-72
2021/06/17 01:00:35;;;;;;;5.35;2.63;;;;;;;12.63;69.95;100167.47;5033240;28;20502;-71
2021/06/17 01:03:01;;;;;;;5.10;2.25;;;;;;;12.55;70.28;100172.53;5017376;28;20041;-73
2021/06/17 01:05:27;;;;;;;7.60;2.75;;;;;;;12.51;70.09;100176.38;5014357;28;20383;-74
2021/06/17 01:08:02;;;;;;;9.15;2.75;;;;;;;12.49;70.70;100183.63;5014012;28;20041;-74
2021/06/17 01:11:06;;;;;;;4.85;2.17;;;;;;;12.52;70.17;100189.50;5014497;28;20045;-75
2021/06/17 01:13:38;;;;;;;4.07;2.05;;;;;;;12.57;70.11;100191.81;4978352;28;20459;-71
2021/06/17 01:16:19;;;;;;;5.80;2.67;;;;;;;12.64;70.44;100192.22;5013817;28;20095;-70
2021/06/17 01:18:53;;;;;;;4.82;2.08;;;;;;;12.70;70.70;100184.59;5014035;28;20478;-72
2021/06/17 01:21:30;;;;;;;5.72;2.20;;;;;;;12.71;70.02;100188.09;5013053;28;20048;-72
2021/06/17 01:24:23;;;;;;;4.43;2.13;;;;;;;12.76;69.82;100197.41;4996438;28;20073;-73
2021/06/17 01:27:08;;;;;;;6.53;2.53;;;;;;;12.82;69.67;100185.44;5013844;28;20295;-72
2021/06/17 01:29:35;;;;;;;4.43;2.28;;;;;;;12.83;69.62;100186.31;5013767;28;20435;-73
2021/06/17 01:32:02;;;;;;;7.10;2.00;;;;;;;12.76;69.42;100181.47;5013268;28;20395;-72
2021/06/17 01:34:28;;;;;;;5.63;2.22;;;;;;;12.68;69.67;100191.00;5012738;28;20048;-74
2021/06/17 01:37:01;;;;;;;3.67;2.30;;;;;;;12.58;70.25;100201.47;5012111;28;20046;-73
2021/06/17 01:39:28;;;;;;;5.00;2.08;;;;;;;12.51;70.14;100192.28;5012645;28;20046;-71
2021/06/17 01:41:54;;;;;;;3.85;2.15;;;;;;;12.46;71.02;100206.75;5013362;28;20065;-75
2021/06/17 01:44:21;;;;;;;7.63;2.53;;;;;;;12.39;71.13;100210.00;5012357;28;20034;-73
2021/06/17 01:46:49;;;;;;;4.95;2.10;;;;;;;12.44;70.67;100218.47;5012446;28;20517;-72
2021/06/17 01:49:16;;;;;;;5.30;2.22;;;;;;;12.50;70.58;100217.13;5012334;28;20367;-73
2021/06/17 01:51:43;;;;;;;7.78;2.20;;;;;;;12.55;70.56;100204.38;5013377;28;20136;-71
2021/06/17 01:54:09;;;;;;;7.68;2.33;;;;;;;12.60;70.36;100202.22;5012034;28;20042;-72
2021/06/17 01:56:35;;;;;;;7.03;2.40;;;;;;;12.68;69.90;100205.09;5012105;28;20605;-71
2021/06/17 01:59:04;;;;;;;4.78;2.60;;;;;;;12.79;68.57;100207.75;5010474;28;20402;-72
2021/06/17 02:01:32;;;;;;;5.43;2.47;;;;;;;12.91;68.45;100226.34;5013760;28;20041;-73
2021/06/17 02:04:00;;;;;;;6.72;2.80;;;;;;;13.00;68.89;100224.81;5030420;28;20037;-72
2021/06/17 02:06:27;;;;;;;7.90;2.60;;;;;;;13.10;68.25;100217.81;5032088;28;20041;-73
2021/06/17 02:08:55;;;;;;;4.35;2.13;;;;;;;13.18;68.05;100217.19;5032570;28;20049;-71
2021/06/17 02:11:21;;;;;;;7.13;2.55;;;;;;;13.24;68.57;100225.50;5031563;28;20099;-72
2021/06/17 02:13:48;;;;;;;4.95;2.08;;;;;;;13.29;67.75;100224.31;5031691;28;20091;-71
2021/06/17 02:16:15;;;;;;;19.98;11.85;;;;;;;13.33;67.40;100221.25;5032537;28;20046;-71
2021/06/17 02:18:41;;;;;;;4.50;2.50;;;;;;;13.38;68.04;100224.47;5031895;28;20029;-72
2021/06/17 02:21:08;;;;;;;6.45;2.45;;;;;;;13.41;68.61;100229.50;5032486;28;20056;-72
2021/06/17 02:23:36;;;;;;;6.45;2.10;;;;;;;13.43;68.40;100235.56;5031227;28;20037;-74
2021/06/17 02:26:02;;;;;;;6.40;2.30;;;;;;;13.46;68.94;100228.28;5031179;28;20047;-72
2021/06/17 02:28:30;;;;;;;6.65;2.67;;;;;;;13.49;68.89;100230.72;5031209;28;20632;-74
2021/06/17 02:31:00;;;;;;;11.10;4.03;;;;;;;13.53;68.51;100233.00;5030889;28;20037;-75
2021/06/17 02:33:26;;;;;;;6.97;2.28;;;;;;;13.65;65.57;100230.31;5030985;28;20039;-72
2021/06/17 02:35:54;;;;;;;5.05;2.47;;;;;;;13.77;65.16;100239.97;5030730;28;20052;-76
2021/06/17 02:38:25;;;;;;;7.05;2.60;;;;;;;13.87;66.11;100232.91;5032796;28;20403;-74
2021/06/17 02:40:51;;;;;;;7.95;3.08;;;;;;;13.94;65.96;100243.06;5031621;28;20072;-72
2021/06/17 02:43:19;;;;;;;5.68;2.30;;;;;;;13.98;64.93;100248.00;5031230;28;20152;-72
2021/06/17 02:45:45;;;;;;;;;;;;;;;14.08;64.40;100248.91;5032781;28;20094;-74
2021/06/17 02:48:11;;;;;;;7.97;2.38;;;;;;;14.19;62.98;100250.69;5014575;28;19913;-75
2021/06/17 02:50:38;;;;;;;6.13;2.50;;;;;;;14.30;64.18;100247.13;5032003;28;20041;-72
2021/06/17 02:53:04;;;;;;;9.30;2.97;;;;;;;14.40;64.01;100253.38;5032183;28;20071;-71
2021/06/17 02:55:30;;;;;;;7.20;2.60;;;;;;;14.48;64.39;100250.06;5032115;28;20128;-73
2021/06/17 02:58:21;;;;;;;5.32;2.67;;;;;;;14.55;65.82;100253.03;5030737;28;20164;-73
2021/06/17 03:00:57;;;;;;;5.50;3.03;;;;;;;14.61;65.97;100252.53;5003153;28;20117;-74
2021/06/17 03:03:40;;;;;;;9.55;2.65;;;;;;;14.70;67.46;100254.44;5003312;28;20030;-74
2021/06/17 03:06:12;;;;;;;7.35;2.75;;;;;;;14.78;66.50;100250.25;4998045;28;20041;-77
2021/06/17 03:08:41;;;;;;;6.28;2.17;;;;;;;14.88;66.72;100261.84;5000426;28;20467;-73
2021/06/17 03:11:10;;;;;;;6.03;2.60;;;;;;;15.02;64.40;100248.16;4991619;28;20064;-73
2021/06/17 03:13:40;;;;;;;9.80;2.60;;;;;;;15.16;65.04;100254.13;5010953;28;20430;-70
2021/06/17 03:16:08;;;;;;;7.72;2.63;;;;;;;15.21;65.95;100267.88;4993783;28;20050;-73
2021/06/17 03:18:34;;;;;;;6.82;2.45;;;;;;;15.29;64.88;100257.41;5011217;28;20049;-73
2021/06/17 03:21:01;;;;;;;14.43;2.72;;;;;;;15.36;64.73;100261.22;5010631;28;20034;-74
2021/06/17 03:23:29;;;;;;;7.97;2.50;;;;;;;15.46;63.28;100265.72;5011913;28;20498;-72
2021/06/17 03:25:56;;;;;;;;;;;;;;;15.55;61.49;100258.72;5012384;28;20046;-73
2021/06/17 03:28:23;;;;;;;5.18;1.90;;;;;;;15.65;60.60;100264.94;5011706;28;19921;-72
2021/06/17 03:30:49;;;;;;;4.95;2.10;;;;;;;15.78;59.36;100272.69;5010499;28;20046;-73
2021/06/17 03:33:21;;;;;;;5.73;2.00;;;;;;;15.90;58.49;100284.09;5010693;28;20064;-76
2021/06/17 03:35:47;;;;;;;7.75;2.33;;;;;;;16.04;57.56;100282.84;5012006;28;20050;-74
2021/06/17 03:38:15;;;;;;;7.45;1.85;;;;;;;16.15;56.90;100277.41;5010616;28;20116;-76
2021/06/17 03:40:44;;;;;;;5.53;2.25;;;;;;;16.27;55.39;100281.59;5012116;28;20037;-76
2021/06/17 03:43:10;;;;;;;6.30;1.73;;;;;;;16.39;55.01;100281.47;5010610;28;20519;-75
2021/06/17 03:45:41;;;;;;;3.95;2.10;;;;;;;16.49;54.69;100284.97;5010554;28;20041;-73
2021/06/17 03:48:07;;;;;;;8.40;1.95;;;;;;;16.59;54.04;100285.81;5010173;28;20494;-72
2021/06/17 03:50:34;;;;;;;3.80;1.60;;;;;;;16.73;53.38;100289.03;5010680;28;20050;-75
2021/06/17 03:53:00;;;;;;;5.47;1.92;;;;;;;16.89;53.80;100291.13;5011724;28;20459;-74
2021/06/17 03:55:26;;;;;;;6.75;1.83;;;;;;;18.27;51.40;100279.59;5010127;28;20046;-75
2021/06/17 03:57:56;;;;;;;4.25;2.20;;;;;;;20.46;45.60;100282.00;5010402;28;20129;-72
2021/06/17 04:00:23;;;;;;;5.47;2.00;;;;;;;22.07;41.80;100268.53;5011784;28;20069;-74
2021/06/17 04:02:52;;;;;;;5.60;2.50;;;;;;;23.31;38.78;100272.84;5026346;28;20157;-75
2021/06/17 04:05:17;;;;;;;6.40;1.77;;;;;;;24.26;36.76;100273.72;5031235;28;20117;-75
2021/06/17 04:07:44;;;;;;;4.95;1.90;;;;;;;25.18;35.63;100284.63;5030903;28;20135;-74
2021/06/17 04:10:11;;;;;;;6.95;2.38;;;;;;;26.33;33.08;100284.03;5031388;28;20044;-77
2021/06/17 04:12:38;;;;;;;7.97;2.27;;;;;;;27.36;31.43;100285.38;5031644;28;20030;-75
2021/06/17 04:15:05;;;;;;;5.80;1.83;;;;;;;27.71;29.90;100286.97;5029581;28;20076;-74
2021/06/17 04:17:51;;;;;;;5.00;1.70;;;;;;;28.20;29.48;100290.88;5030016;28;20474;-75
2021/06/17 04:20:21;;;;;;;6.38;2.17;;;;;;;29.05;28.20;100299.63;5029592;28;20049;-74
2021/06/17 04:22:47;;;;;;;5.78;1.67;;;;;;;29.49;27.55;100296.84;5030020;28;20037;-71
2021/06/17 04:25:13;;;;;;;2.03;1.27;;;;;;;29.92;26.86;100295.91;5030849;28;20038;-76
2021/06/17 04:27:41;;;;;;;6.47;1.90;;;;;;;30.01;26.42;100301.88;5015980;28;20419;-75
2021/06/17 04:30:10;;;;;;;5.00;1.70;;;;;;;30.42;26.15;100302.06;5034331;28;20045;-73
2021/06/17 04:32:38;;;;;;;4.35;1.63;;;;;;;31.00;25.35;100300.47;5034544;28;20417;-73
2021/06/17 04:35:04;;;;;;;4.53;2.00;;;;;;;31.18;25.62;100301.44;5034131;28;20084;-73
2021/06/17 04:37:31;;;;;;;6.15;1.80;;;;;;;31.50;23.34;100309.22;5034896;28;20048;-75
2021/06/17 04:39:58;;;;;;;4.57;1.77;;;;;;;31.06;23.94;100310.44;5034116;28;20025;-76
2021/06/17 04:42:25;;;;;;;7.78;2.15;;;;;;;32.23;23.63;100310.38;5034479;28;20056;-74
2021/06/17 04:44:52;;;;;;;6.63;2.00;;;;;;;32.96;22.61;100309.69;5034326;28;20075;-75
2021/06/17 04:47:18;;;;;;;8.10;1.88;;;;;;;33.01;23.26;100312.47;5033972;28;20091;-72
2021/06/17 04:49:44;;;;;;;6.80;2.03;;;;;;;33.69;21.52;100314.19;5034337;28;20125;-73
2021/06/17 04:52:31;;;;;;;6.18;2.05;;;;;;;33.08;21.35;100315.03;5034007;28;20037;-76
2021/06/17 04:54:56;;;;;;;;;;;;;;;34.51;21.37;100317.78;5033081;28;20061;-73
2021/06/17 04:57:22;;;;;;;8.67;2.40;;;;;;;34.77;20.25;100319.88;5034478;28;19947;-74
2021/06/17 04:59:48;;;;;;;10.33;3.43;;;;;;;34.98;19.49;100316.22;5034321;28;20059;-77
2021/06/17 05:02:14;;;;;;;11.07;3.33;;;;;;;34.94;19.57;100325.25;5023904;28;20460;-75
2021/06/17 05:04:39;;;;;;;4.60;2.13;;;;;;;34.78;19.04;100321.53;5014287;28;20511;-74
2021/06/17 05:12:16;;;;;;;5.13;2.13;;;;;;;35.76;18.75;100319.31;4996197;28;20038;-75
2021/06/17 05:14:42;;;;;;;4.90;2.17;;;;;;;36.61;17.42;100323.59;5014236;28;20293;-77
2021/06/17 05:17:08;;;;;;;2.85;1.13;;;;;;;36.20;16.66;100320.81;4996182;28;20364;-76
2021/06/17 05:19:34;;;;;;;4.35;1.30;;;;;;;36.05;17.18;100327.13;5012697;28;20041;-77
2021/06/17 05:22:02;;;;;;;3.58;1.10;;;;;;;35.37;16.85;100330.72;5013831;28;20046;-73
2021/06/17 05:24:28;;;;;;;1.98;0.90;;;;;;;35.31;16.92;100330.69;5013782;28;20034;-74
2021/06/17 05:26:54;;;;;;;2.67;0.77;;;;;;;35.79;16.57;100329.78;5012206;28;20080;-75
2021/06/17 05:29:19;;;;;;;3.88;0.90;;;;;;;36.47;15.93;100328.03;5013376;28;20335;-76
2021/06/17 05:31:45;;;;;;;2.05;0.93;;;;;;;36.41;15.72;100329.94;5012312;28;20044;-76
2021/06/17 05:34:11;;;;;;;2.93;0.70;;;;;;;36.00;16.11;100336.19;5013818;28;20065;-78
2021/06/17 05:36:37;;;;;;;4.15;0.90;;;;;;;35.34;16.29;100328.50;5013578;28;20054;-72
2021/06/17 05:39:03;;;;;;;4.37;0.60;;;;;;;35.74;15.87;100332.53;5012349;28;20033;-78
2021/06/17 05:41:29;;;;;;;2.92;0.80;;;;;;;35.54;16.13;100330.53;5013163;28;20790;-79
2021/06/17 05:43:55;;;;;;;2.87;0.97;;;;;;;36.13;15.92;100332.09;5013603;28;20036;-80
2021/06/17 05:46:21;;;;;;;3.60;0.70;;;;;;;37.00;14.81;100331.28;4995719;28;20061;-72
2021/06/17 05:48:46;;;;;;;2.90;1.00;;;;;;;37.55;13.95;100339.66;5013551;28;20030;-77
2021/06/17 05:51:12;;;;;;;3.22;0.77;;;;;;;37.16;13.88;100329.31;5013215;28;20034;-76
2021/06/17 05:53:38;;;;;;;2.40;0.80;;;;;;;36.17;14.46;100346.97;4995492;28;20041;-78
2021/06/17 05:56:04;;;;;;;4.60;1.05;;;;;;;36.03;15.12;100340.31;5011652;28;20380;-78
2021/06/17 05:58:30;;;;;;;2.17;0.90;;;;;;;36.39;14.78;100341.25;5012488;28;20125;-76
2021/06/17 06:00:56;;;;;;;3.03;0.90;;;;;;;37.72;14.34;100338.47;5013347;28;20378;-76
2021/06/17 06:03:22;;;;;;;3.13;1.00;;;;;;;36.65;14.71;100343.16;5014471;28;20589;-80
2021/06/17 06:05:48;;;;;;;2.97;0.90;;;;;;;36.40;15.05;100347.56;5031636;28;20045;-78
2021/06/17 06:08:14;;;;;;;1.43;0.83;;;;;;;38.03;14.59;100341.94;5032717;28;20095;-78
2021/06/17 06:10:41;;;;;;;2.95;1.20;;;;;;;38.21;14.11;100347.88;5032608;28;20275;-75
2021/06/17 06:13:06;;;;;;;2.67;1.30;;;;;;;39.38;12.77;100347.09;5031180;28;20068;-75
2021/06/17 06:15:33;;;;;;;5.00;1.20;;;;;;;39.05;12.97;100344.13;5032940;28;20046;-82
2021/06/17 06:18:26;;;;;;;2.55;1.08;;;;;;;38.15;14.34;100357.31;5032622;28;20053;-77
2021/06/17 06:20:56;;;;;;;2.33;0.80;;;;;;;39.29;13.15;100355.25;5029877;28;20116;-80
2021/06/17 06:23:22;;;;;;;3.63;1.17;;;;;;;38.81;13.47;100360.69;5029749;28;20099;-83
2021/06/17 06:25:49;;;;;;;4.88;1.05;;;;;;;38.54;13.60;100361.19;5013898;28;20049;-76
2021/06/17 06:28:15;;;;;;;4.50;1.20;;;;;;;38.41;14.03;100360.75;5013554;28;20041;-81
2021/06/17 06:30:41;;;;;;;5.13;1.30;;;;;;;39.08;14.21;100364.84;4997491;28;20391;-83
2021/06/17 06:33:07;;;;;;;1.88;1.23;;;;;;;38.63;13.79;100367.75;5029757;28;20033;-80
2021/06/17 06:35:33;;;;;;;5.25;1.50;;;;;;;38.20;14.22;100368.31;5013266;28;20168;-83
2021/06/17 06:37:59;;;;;;;4.75;1.42;;;;;;;37.85;14.63;100364.69;5029797;28;20379;-80
2021/06/17 06:40:25;;;;;;;5.00;1.17;;;;;;;38.33;14.38;100377.94;5029729;28;20072;-78
2021/06/17 06:42:52;;;;;;;4.95;1.95;;;;;;;38.39;14.01;100371.25;5013790;28;20422;-78
2021/06/17 06:45:18;;;;;;;2.75;1.30;;;;;;;37.72;14.22;100369.69;5029456;28;20094;-77
2021/06/17 06:47:44;;;;;;;2.53;1.60;;;;;;;38.36;13.55;100366.31;5029727;28;20099;-79
2021/06/17 06:50:10;;;;;;;2.83;1.15;;;;;;;38.09;13.88;100370.31;5012865;28;20064;-83
2021/06/17 06:52:36;;;;;;;4.90;1.20;;;;;;;38.93;13.48;100380.50;5029453;28;20029;-79
2021/06/17 06:55:03;;;;;;;1.92;0.95;;;;;;;38.54;12.96;100377.78;5029326;28;20044;-80
2021/06/17 06:57:30;;;;;;;2.03;1.15;;;;;;;38.65;13.17;100379.34;5030336;28;20212;-78
2021/06/17 06:59:56;;;;;;;4.00;1.13;;;;;;;38.50;13.54;100383.88;5030787;28;20037;-79
2021/06/17 07:02:22;;;;;;;1.40;0.90;;;;;;;38.38;13.24;100382.59;5016363;28;20460;-79
2021/06/17 07:04:48;;;;;;;1.48;0.98;;;;;;;38.55;13.12;100396.03;4991695;28;20093;-82
2021/06/17 07:07:14;;;;;;;1.10;1.00;;;;;;;39.58;12.17;100386.72;4975049;28;20193;-80
2021/06/17 07:09:39;;;;;;;3.40;1.00;;;;;;;39.90;12.00;100397.09;5024805;28;20104;-83
2021/06/17 07:12:06;;;;;;;2.33;1.00;;;;;;;39.77;12.21;100400.63;4959228;28;20396;-76
2021/06/17 07:14:32;;;;;;;2.30;1.05;;;;;;;38.66;12.64;100403.13;4991675;28;20084;-77
2021/06/17 07:16:58;;;;;;;1.88;1.08;;;;;;;38.18;12.51;100410.06;4992789;28;20086;-77
2021/06/17 07:19:24;;;;;;;3.90;1.30;;;;;;;39.39;13.18;100404.09;4992476;28;20045;-78
2021/06/17 07:21:50;;;;;;;2.90;1.30;;;;;;;40.17;11.78;100395.66;4991450;28;20479;-80
2021/06/17 07:24:16;;;;;;;2.92;1.13;;;;;;;38.19;13.01;100406.16;4992320;28;20062;-78
2021/06/17 07:26:42;;;;;;;2.90;1.05;;;;;;;37.58;12.87;100396.25;4992684;28;20030;-81
2021/06/17 07:29:08;;;;;;;3.05;1.90;;;;;;;38.16;12.87;100412.28;4992100;28;20035;-75
2021/06/17 07:31:34;;;;;;;2.72;1.55;;;;;;;37.61;12.91;100394.84;4992956;28;20037;-82
2021/06/17 07:33:59;;;;;;;;;;;;;;;38.17;13.47;100421.38;4993315;28;20040;-76
2021/06/17 07:36:25;;;;;;;2.35;1.23;;;;;;;37.46;13.80;100407.63;4993076;28;19924;-80
2021/06/17 07:38:51;;;;;;;1.63;1.23;;;;;;;38.06;13.22;100401.31;4992555;28;20093;-80
2021/06/17 07:41:18;;;;;;;7.05;6.32;;;;;;;38.38;13.26;100402.75;4992416;28;20069;-76
2021/06/17 07:43:43;;;;;;;;;;;;;;;38.87;12.89;100403.78;4993065;28;20053;-77
2021/06/17 07:46:09;;;;;;;1.20;1.10;;;;;;;39.44;12.29;100411.53;4992069;28;19914;-81
2021/06/17 07:48:36;;;;;;;2.20;1.10;;;;;;;40.26;12.25;100415.22;5007619;28;20038;-77
2021/06/17 07:51:09;;;;;;;1.52;1.10;;;;;;;41.23;11.92;100414.72;4991057;28;20384;-76
2021/06/17 07:53:38;;;;;;;1.98;1.30;;;;;;;41.89;11.44;100417.31;4991421;28;20045;-82
2021/06/17 07:56:04;;;;;;;1.33;1.23;;;;;;;40.88;11.83;100420.59;4991005;28;20397;-77
2021/06/17 07:58:30;;;;;;;;;;;;;;;41.78;11.27;100413.09;4992659;28;20034;-77
2021/06/17 08:00:56;;;;;;;2.17;1.10;;;;;;;40.12;11.83;100412.38;4990967;28;19913;-76
2021/06/17 08:03:22;;;;;;;1.63;1.25;;;;;;;40.49;11.75;100415.41;5035028;28;20068;-80
2021/06/17 08:05:47;;;;;;;;;;;;;;;40.24;11.90;100421.06;5034909;28;20053;-81
2021/06/17 08:08:13;;;;;;;1.80;1.00;;;;;;;40.34;11.57;100422.84;5035858;28;19913;-80
2021/06/17 08:10:40;;;;;;;1.17;1.08;;;;;;;39.59;12.51;100424.34;5034951;28;20036;-81
2021/06/17 08:13:06;;;;;;;1.98;1.42;;;;;;;39.84;12.41;100437.09;5034895;28;20045;-80
2021/06/17 08:15:32;;;;;;;1.20;0.90;;;;;;;40.10;11.72;100421.00;5035762;28;20116;-76
2021/06/17 08:17:58;;;;;;;;;;;;;;;40.13;11.77;100427.88;5034657;28;20049;-79
2021/06/17 08:20:24;;;;;;;2.30;1.17;;;;;;;40.88;11.53;100433.66;5035094;28;19975;-79
2021/06/17 08:22:50;;;;;;;3.38;1.20;;;;;;;39.85;11.95;100437.94;5035523;28;20034;-81
2021/06/17 08:25:16;;;;;;;;;;;;;;;39.04;11.99;100438.50;5034037;28;20144;-78
2021/06/17 08:27:42;;;;;;;6.35;5.75;;;;;;;38.65;12.68;100431.88;5034095;28;19913;-79
2021/06/17 08:30:10;;;;;;;3.75;2.97;;;;;;;38.82;12.53;100443.38;5017289;28;20033;-79
2021/06/17 08:32:36;;;;;;;2.95;1.10;;;;;;;39.87;12.25;100441.22;5035164;28;20088;-77
2021/06/17 08:35:03;;;;;;;2.75;1.40;;;;;;;39.27;12.45;100431.38;5035169;28;20029;-77
2021/06/17 08:37:29;;;;;;;1.60;1.10;;;;;;;39.05;12.72;100440.97;5033865;28;20048;-79
2021/06/17 08:39:56;;;;;;;2.90;0.93;;;;;;;39.33;12.74;100432.94;5035010;28;20045;-83
2021/06/17 08:42:26;;;;;;;3.92;1.40;;;;;;;39.00;12.74;100436.28;5035054;28;20039;-79
2021/06/17 08:44:55;;;;;;;3.22;1.40;;;;;;;38.71;12.99;100439.03;5034913;28;20124;-80
2021/06/17 08:47:21;;;;;;;4.18;1.30;;;;;;;38.90;12.70;100433.63;5034877;28;20470;-76
2021/06/17 08:49:49;;;;;;;;;;;;;;;37.75;12.98;100431.78;5035454;28;20053;-76
2021/06/17 08:52:16;;;;;;;7.30;1.35;;;;;;;37.46;13.76;100435.22;5034841;28;19916;-82
2021/06/17 08:54:41;;;;;;;3.85;1.52;;;;;;;37.94;14.43;100425.69;5033644;28;20041;-79
2021/06/17 08:57:07;;;;;;;7.00;1.40;;;;;;;39.14;12.91;100422.63;5033630;28;20055;-78
2021/06/17 08:59:38;;;;;;;2.88;1.30;;;;;;;38.92;13.38;100425.03;5034426;28;20490;-78
2021/06/17 09:02:04;;;;;;;4.80;1.30;;;;;;;38.36;13.29;100427.13;5025872;28;20062;-85
2021/06/17 09:04:31;;;;;;;;;;;;;;;38.17;13.23;100416.69;5013939;28;20061;-80
2021/06/17 09:07:12;;;;;;;3.50;1.15;;;;;;;36.99;13.83;100417.06;5012862;28;19914;-76
2021/06/17 09:09:44;;;;;;;1.50;1.08;;;;;;;37.23;13.91;100426.38;5014565;28;20471;-81
2021/06/17 09:12:17;;;;;;;2.70;1.15;;;;;;;38.71;12.57;100419.66;5012923;28;20125;-80
2021/06/17 09:14:51;;;;;;;4.30;1.30;;;;;;;39.10;12.71;100412.41;5014443;28;20058;-79
2021/06/17 09:17:17;;;;;;;4.72;1.40;;;;;;;40.06;11.56;100408.81;5029380;28;20084;-78
2021/06/17 09:19:48;;;;;;;2.10;1.20;;;;;;;39.00;12.35;100410.56;5014164;28;20033;-75
2021/06/17 09:22:25;;;;;;;5.38;1.38;;;;;;;38.49;13.02;100407.09;4980195;28;20072;-75
2021/06/17 09:24:53;;;;;;;4.22;1.00;;;;;;;37.75;12.87;100404.19;5014396;28;20041;-79
2021/06/17 09:27:25;;;;;;;5.55;1.10;;;;;;;38.33;12.88;100416.63;5013968;28;20120;-80
2021/06/17 09:30:18;;;;;;;3.03;1.20;;;;;;;38.82;12.98;100412.94;5014308;28;20041;-77
2021/06/17 09:32:52;;;;;;;4.60;1.08;;;;;;;38.40;13.33;100416.31;5012921;28;20077;-77
2021/06/17 09:35:27;;;;;;;2.45;1.00;;;;;;;38.75;12.73;100415.22;5013419;28;20050;-80
2021/06/17 09:38:01;;;;;;;3.67;1.10;;;;;;;38.99;12.40;100422.75;5014075;28;20038;-79
2021/06/17 09:40:31;;;;;;;2.63;1.30;;;;;;;38.85;12.50;100411.53;5012883;28;20042;-83
2021/06/17 09:43:16;;;;;;;3.65;0.90;;;;;;;38.61;12.96;100411.47;4996695;28;20096;-82
2021/06/17 09:46:14;;;;;;;4.75;0.80;;;;;;;37.38;13.15;100402.66;5013803;28;20511;-82
2021/06/17 09:48:41;;;;;;;5.07;1.00;;;;;;;37.94;12.77;100403.56;4992091;28;20046;-79
2021/06/17 09:51:26;;;;;;;5.13;1.95;;;;;;;37.83;13.39;100408.31;4991980;28;20400;-81
2021/06/17 09:53:54;;;;;;;4.87;0.90;;;;;;;37.75;13.17;100412.47;4975819;28;20103;-79
2021/06/17 09:56:32;;;;;;;2.10;0.73;;;;;;;36.23;13.91;100411.16;4991625;28;20042;-78
2021/06/17 09:58:58;;;;;;;2.38;0.90;;;;;;;36.27;14.37;100404.81;4991966;28;20122;-77
2021/06/17 10:01:41;;;;;;;3.80;0.90;;;;;;;36.36;14.06;100404.28;4990536;28;20125;-77
2021/06/17 10:04:12;;;;;;;2.45;1.27;;;;;;;36.26;14.44;100405.94;4971253;28;20047;-76
2021/06/17 10:06:43;;;;;;;1.75;1.02;;;;;;;36.51;14.15;100401.56;4971150;28;20586;-80
2021/06/17 10:09:11;;;;;;;4.25;0.70;;;;;;;36.58;14.78;100396.63;4971686;28;20381;-78
2021/06/17 10:11:38;;;;;;;4.57;1.02;;;;;;;36.86;14.34;100397.22;4971782;28;20065;-78
2021/06/17 10:14:05;;;;;;;5.35;0.80;;;;;;;36.65;14.37;100398.28;4971920;28;20043;-76
2021/06/17 10:16:32;;;;;;;3.90;0.93;;;;;;;36.92;13.90;100395.28;4971547;28;20049;-78
2021/06/17 10:19:00;;;;;;;6.45;1.30;;;;;;;35.76;14.65;100391.69;4972066;28;20649;-80
2021/06/17 10:21:26;;;;;;;2.22;1.00;;;;;;;34.55;15.24;100400.50;4971701;28;20138;-74
2021/06/17 10:23:53;;;;;;;4.20;1.10;;;;;;;33.45;15.80;100387.66;4978314;28;20047;-79
2021/06/17 10:26:21;;;;;;;3.65;0.88;;;;;;;32.95;17.21;100400.34;4992909;28;20038;-75
2021/06/17 10:28:51;;;;;;;1.58;0.70;;;;;;;33.34;16.08;100401.25;4991798;28;20061;-78
2021/06/17 10:31:36;;;;;;;3.58;1.83;;;;;;;33.26;16.85;100407.16;4993324;28;20246;-78
2021/06/17 10:34:41;;;;;;;2.35;1.05;;;;;;;33.99;16.13;100401.53;4993059;28;20472;-74
2021/06/17 10:37:25;;;;;;;1.85;0.98;;;;;;;33.68;16.51;100406.66;4974341;28;20144;-76
2021/06/17 10:40:05;;;;;;;4.45;0.82;;;;;;;33.61;16.61;100397.78;4990824;28;20042;-79
2021/06/17 10:42:51;;;;;;;1.48;1.10;;;;;;;33.30;16.75;100391.88;4990403;28;20046;-80
2021/06/17 10:45:32;;;;;;;3.08;0.77;;;;;;;32.31;16.37;100395.94;4990541;28;20042;-75
2021/06/17 10:48:05;;;;;;;5.18;1.10;;;;;;;31.23;18.60;100397.19;4990616;28;20322;-75
2021/06/17 10:50:38;;;;;;;3.45;1.08;;;;;;;31.19;18.29;100396.88;4990451;28;20034;-78
2021/06/17 10:53:21;;;;;;;5.80;1.05;;;;;;;31.41;18.44;100394.34;4990787;28;20042;-78
2021/06/17 10:55:54;;;;;;;4.07;1.05;;;;;;;31.55;18.02;100391.34;4974836;28;20115;-77
2021/06/17 10:58:45;;;;;;;1.98;0.90;;;;;;;31.40;18.18;100395.41;4990626;28;20034;-80
2021/06/17 11:01:24;;;;;;;3.38;1.30;;;;;;;31.09;19.54;100392.00;4991443;28;20619;-77
2021/06/17 11:04:08;;;;;;;5.70;1.27;;;;;;;30.94;19.13;100400.63;5010403;28;20045;-78
2021/06/17 11:06:52;;;;;;;2.90;0.85;;;;;;;30.53;19.75;100398.75;5010064;28;20029;-77
2021/06/17 11:09:39;;;;;;;2.42;1.00;;;;;;;30.07;20.27;100404.63;4992985;28;20467;-77
2021/06/17 11:12:17;;;;;;;3.50;1.10;;;;;;;30.37;20.73;100400.22;5008247;28;20117;-79
2021/06/17 11:14:51;;;;;;;6.57;1.10;;;;;;;30.40;20.08;100408.75;4992917;28;20526;-77
2021/06/17 11:17:27;;;;;;;3.35;1.20;;;;;;;30.64;20.23;100403.41;4992559;28;20026;-80
2021/06/17 11:20:04;;;;;;;2.45;1.00;;;;;;;30.56;20.53;100398.31;4992817;28;20082;-77
2021/06/17 11:22:59;;;;;;;4.63;1.02;;;;;;;30.16;20.92;100400.50;4992883;28;20035;-79
2021/06/17 11:25:28;;;;;;;4.82;1.20;;;;;;;29.89;21.21;100399.16;4992958;28;20031;-79
2021/06/17 11:28:23;;;;;;;2.35;1.10;;;;;;;29.53;21.07;100407.94;4992743;28;20121;-81
2021/06/17 11:30:56;;;;;;;5.07;1.00;;;;;;;29.89;21.76;100404.59;4955401;28;20074;-81
2021/06/17 11:33:25;;;;;;;2.13;1.27;;;;;;;29.54;20.71;100406.84;4954426;28;20487;-79
2021/06/17 11:36:01;;;;;;;2.97;1.25;;;;;;;29.21;20.87;100399.00;4970258;28;20035;-79
2021/06/17 11:38:41;;;;;;;2.03;1.10;;;;;;;28.99;21.08;100401.31;4944140;28;20102;-77
2021/06/17 11:41:14;;;;;;;6.72;1.20;;;;;;;28.95;21.58;100403.63;4942959;28;20412;-76
2021/06/17 11:43:43;;;;;;;3.25;1.58;;;;;;;28.51;21.30;100402.66;4942830;28;20039;-76